createdAt,value
2022-07-29T00:02:18.704Z,16.24
2022-07-29T00:07:19.387Z,16.17
2022-07-29T00:12:25.419Z,16.12
2022-07-29T00:17:21.721Z,16.05
2022-07-29T00:22:21.416Z,16.04
2022-07-29T00:27:22.145Z,16.09
2022-07-29T00:32:22.892Z,16.08
2022-07-29T00:37:23.626Z,16.04
2022-07-29T00:42:24.372Z,16.01
2022-07-29T00:47:25.057Z,15.94
2022-07-29T00:52:25.805Z,15.76
2022-07-29T00:57:26.545Z,15.64
2022-07-29T01:02:27.345Z,15.50
2022-07-29T01:07:28.065Z,15.41
2022-07-29T01:12:28.795Z,15.46
2022-07-29T01:17:29.511Z,15.47
2022-07-29T01:22:30.222Z,15.44
2022-07-29T01:27:30.962Z,15.38
2022-07-29T01:32:31.735Z,15.32
2022-07-29T01:37:32.397Z,15.34
2022-07-29T01:42:33.150Z,15.32
2022-07-29T01:47:33.850Z,15.31
2022-07-29T01:52:34.560Z,15.28
2022-07-29T01:57:35.306Z,15.28
2022-07-29T02:02:36.026Z,15.03
2022-07-29T02:07:36.750Z,14.96
2022-07-29T02:12:37.489Z,14.96
2022-07-29T02:17:38.772Z,14.94
2022-07-29T02:22:39.005Z,14.92
2022-07-29T02:27:46.696Z,14.91
2022-07-29T02:32:40.331Z,14.83
2022-07-29T02:37:40.835Z,14.70
2022-07-29T02:42:41.517Z,14.78
2022-07-29T02:47:42.323Z,14.88
2022-07-29T02:52:43.039Z,14.84
2022-07-29T02:57:53.798Z,14.92
2022-07-29T03:02:45.288Z,14.99
2022-07-29T03:07:44.966Z,15.02
2022-07-29T03:12:45.609Z,15.02
2022-07-29T03:17:46.273Z,14.84
2022-07-29T03:22:46.941Z,14.86
2022-07-29T03:27:47.620Z,14.81
2022-07-29T03:32:48.271Z,14.70
2022-07-29T03:37:49.175Z,14.77
2022-07-29T03:42:49.794Z,14.81
2022-07-29T03:47:52.870Z,14.83
2022-07-29T03:52:51.392Z,14.83
2022-07-29T03:57:52.058Z,14.80
2022-07-29T04:02:52.752Z,14.86
2022-07-29T04:07:53.475Z,14.96
2022-07-29T04:12:54.270Z,14.96
2022-07-29T04:17:54.955Z,14.89
2022-07-29T04:22:55.685Z,14.83
2022-07-29T04:27:56.315Z,15.03
2022-07-29T04:32:56.980Z,15.21
2022-07-29T04:37:57.663Z,15.41
2022-07-29T04:42:58.326Z,15.60
2022-07-29T04:47:59.184Z,15.76
2022-07-29T04:52:59.931Z,15.78
2022-07-29T04:58:00.670Z,15.84
2022-07-29T05:03:01.275Z,15.90
2022-07-29T05:08:02.103Z,16.04
2022-07-29T05:13:02.796Z,16.30
2022-07-29T05:18:03.437Z,16.66
2022-07-29T05:23:04.109Z,16.88
2022-07-29T05:28:04.774Z,17.52
2022-07-29T05:33:05.484Z,17.19
2022-07-29T05:38:06.295Z,17.04
2022-07-29T05:43:06.668Z,17.14
2022-07-29T05:48:07.348Z,17.08
2022-07-29T05:53:19.353Z,17.07
2022-07-29T05:58:09.478Z,17.22
2022-07-29T06:03:09.115Z,17.43
2022-07-29T06:08:09.785Z,17.71
2022-07-29T06:13:10.439Z,18.08
2022-07-29T06:18:11.214Z,18.36
2022-07-29T06:23:11.954Z,18.41
2022-07-29T06:28:12.620Z,18.90
2022-07-29T06:33:13.295Z,18.90
2022-07-29T06:38:31.094Z,19.10
2022-07-29T06:43:15.518Z,19.08
2022-07-29T06:48:15.204Z,19.02
2022-07-29T06:53:15.953Z,18.98
2022-07-29T06:58:16.664Z,19.22
2022-07-29T07:03:17.378Z,19.54
2022-07-29T07:08:18.137Z,19.76
2022-07-29T07:13:18.824Z,19.95
2022-07-29T07:18:19.449Z,20.39
2022-07-29T07:23:20.131Z,20.76
2022-07-29T07:28:24.856Z,20.48
2022-07-29T07:33:21.370Z,20.29
2022-07-29T07:38:22.296Z,20.55
2022-07-29T07:43:23.091Z,20.72
2022-07-29T07:48:23.884Z,21.01
2022-07-29T07:53:24.660Z,21.34
2022-07-29T07:58:25.372Z,21.42
2022-07-29T08:03:25.986Z,21.67
2022-07-29T08:08:26.676Z,21.91
2022-07-29T08:13:27.369Z,22.14
2022-07-29T08:18:28.045Z,22.31
2022-07-29T08:23:45.571Z,22.68
2022-07-29T08:34:19.155Z,23.05
2022-07-29T08:45:10.712Z,23.38
2022-07-29T08:50:10.506Z,23.76
2022-07-29T08:55:26.983Z,23.85
2022-07-29T09:00:20.742Z,23.84
2022-07-29T09:05:12.387Z,23.68
2022-07-29T09:10:13.102Z,23.69
2022-07-29T09:15:14.765Z,23.75
2022-07-29T09:20:14.460Z,24.02
2022-07-29T09:25:15.157Z,24.34
2022-07-29T09:30:15.901Z,24.52
2022-07-29T09:35:18.389Z,24.60
2022-07-29T09:40:18.069Z,24.53
2022-07-29T09:45:17.805Z,24.76
2022-07-29T09:50:18.557Z,24.90
2022-07-29T09:55:19.793Z,24.95
2022-07-29T10:00:20.250Z,24.88
2022-07-29T10:05:20.925Z,25.06
2022-07-29T10:10:21.603Z,25.46
2022-07-29T10:15:22.285Z,25.57
2022-07-29T10:20:22.962Z,25.61
2022-07-29T10:25:23.660Z,25.76
2022-07-29T10:30:24.785Z,25.55
2022-07-29T10:35:24.973Z,25.38
2022-07-29T10:40:25.649Z,25.30
2022-07-29T10:45:26.195Z,25.58
2022-07-29T10:50:26.944Z,25.92
2022-07-29T10:55:27.599Z,26.15
2022-07-29T11:00:28.273Z,26.30
2022-07-29T11:05:39.844Z,26.02
2022-07-29T11:10:31.410Z,26.09
2022-07-29T11:15:31.636Z,26.26
2022-07-29T11:20:30.882Z,26.09
2022-07-29T11:25:42.888Z,25.94
2022-07-29T11:30:33.305Z,26.43
2022-07-29T11:40:34.544Z,26.15
2022-07-29T11:45:44.922Z,26.47
2022-07-29T11:50:35.685Z,26.70
2022-07-29T11:55:36.349Z,26.84
2022-07-29T12:00:36.887Z,26.99
2022-07-29T12:05:37.333Z,26.85
2022-07-29T12:10:37.524Z,26.76
2022-07-29T12:15:46.187Z,26.87
2022-07-29T12:20:39.939Z,27.21
2022-07-29T12:25:39.544Z,27.29
2022-07-29T12:30:40.398Z,27.29
2022-07-29T12:35:41.338Z,26.94
2022-07-29T12:46:31.185Z,27.54
2022-07-29T12:51:32.061Z,27.28
2022-07-29T12:56:42.787Z,27.34
2022-07-29T13:01:34.487Z,27.27
2022-07-29T13:06:34.508Z,26.89
2022-07-29T13:11:34.858Z,27.07
2022-07-29T13:16:36.236Z,27.31
2022-07-29T13:21:36.328Z,27.37
2022-07-29T13:26:37.586Z,26.92
2022-07-29T13:31:37.583Z,26.81
2022-07-29T13:36:41.585Z,27.18
2022-07-29T13:41:39.846Z,27.60
2022-07-29T13:46:40.450Z,27.19
2022-07-29T13:51:42.266Z,27.10
2022-07-29T13:56:41.419Z,27.32
2022-07-29T14:01:46.518Z,27.90
2022-07-29T14:06:42.042Z,27.85
2022-07-29T14:11:43.283Z,28.24
2022-07-29T14:16:52.061Z,28.14
2022-07-29T14:21:45.655Z,28.34
2022-07-29T14:26:46.300Z,28.43
2022-07-29T14:31:45.739Z,28.71
2022-07-29T14:36:53.361Z,28.86
2022-07-29T14:41:47.029Z,28.44
2022-07-29T14:46:47.726Z,28.29
2022-07-29T14:51:48.599Z,27.79
2022-07-29T14:56:51.292Z,27.90
2022-07-29T15:01:50.098Z,28.03
2022-07-29T15:06:50.824Z,28.18
2022-07-29T15:11:51.497Z,28.07
2022-07-29T15:16:52.910Z,28.22
2022-07-29T15:21:53.978Z,28.11
2022-07-29T15:26:53.179Z,27.96
2022-07-29T15:31:53.911Z,27.77
2022-07-29T15:36:54.617Z,27.27
2022-07-29T15:41:55.404Z,27.49
2022-07-29T15:46:56.421Z,27.40
2022-07-29T15:51:59.886Z,27.47
2022-07-29T15:56:57.448Z,27.31
2022-07-29T16:01:57.994Z,26.99
2022-07-29T16:06:59.198Z,26.84
2022-07-29T16:11:59.290Z,26.66
2022-07-29T16:17:00.454Z,26.84
2022-07-29T16:22:00.433Z,27.04
2022-07-29T16:27:01.587Z,27.18
2022-07-29T16:32:02.100Z,27.12
2022-07-29T16:37:03.149Z,26.97
2022-07-29T16:42:05.492Z,26.80
2022-07-29T16:47:04.281Z,26.72
2022-07-29T16:52:05.001Z,26.69
2022-07-29T16:57:05.671Z,26.70
2022-07-29T17:02:06.334Z,26.73
2022-07-29T17:07:07.065Z,26.73
2022-07-29T17:12:07.718Z,26.85
2022-07-29T17:17:12.258Z,26.87
2022-07-29T17:22:15.514Z,26.66
2022-07-29T17:27:10.475Z,26.51
2022-07-29T17:32:10.213Z,26.43
2022-07-29T17:37:11.014Z,26.35
2022-07-29T17:42:11.799Z,26.13
2022-07-29T17:47:15.708Z,26.05
2022-07-29T17:52:13.557Z,26.20
2022-07-29T17:57:14.369Z,26.20
2022-07-29T18:02:15.426Z,25.98
2022-07-29T18:07:16.001Z,25.77
2022-07-29T18:12:16.289Z,25.62
2022-07-29T18:17:17.095Z,25.47
2022-07-29T18:22:17.864Z,25.36
2022-07-29T18:27:18.555Z,25.24
2022-07-29T18:32:19.158Z,25.13
2022-07-29T18:38:02.168Z,25.02
2022-07-29T18:42:21.476Z,24.88
2022-07-29T18:47:21.292Z,24.80
2022-07-29T18:52:21.987Z,24.69
2022-07-29T18:57:56.289Z,24.58
2022-07-29T19:02:24.718Z,24.45
2022-07-29T19:07:24.136Z,24.31
2022-07-29T19:12:24.818Z,24.16
2022-07-29T19:17:26.654Z,24.03
2022-07-29T19:22:26.342Z,23.84
2022-07-29T19:27:27.013Z,23.68
2022-07-29T19:32:27.789Z,23.55
2022-07-29T19:37:28.450Z,23.42
2022-07-29T19:42:29.148Z,23.28
2022-07-29T19:47:29.870Z,23.13
2022-07-29T19:52:30.646Z,23.02
2022-07-29T19:57:40.508Z,22.90
2022-07-29T20:02:33.198Z,22.76
2022-07-29T20:07:32.514Z,22.70
2022-07-29T20:12:35.382Z,22.60
2022-07-29T20:17:34.385Z,22.51
2022-07-29T20:22:35.936Z,22.43
2022-07-29T20:27:35.799Z,22.33
2022-07-29T20:32:36.677Z,22.22
2022-07-29T20:37:56.193Z,22.15
2022-07-29T20:42:39.318Z,22.12
2022-07-29T20:47:38.681Z,22.07
2022-07-29T20:52:41.358Z,21.98
2022-07-29T20:57:40.291Z,21.90
2022-07-29T21:02:41.309Z,21.91
2022-07-29T21:07:41.757Z,21.94
2022-07-29T21:12:42.576Z,21.98
2022-07-29T21:17:43.402Z,22.02
2022-07-29T21:22:44.233Z,22.06
2022-07-29T21:27:44.972Z,22.06
2022-07-29T21:32:45.752Z,22.03
2022-07-29T21:37:46.506Z,22.05
2022-07-29T21:42:47.273Z,21.98
2022-07-29T21:47:47.977Z,21.92
2022-07-29T21:52:48.754Z,21.92
2022-07-29T21:57:49.600Z,21.84
2022-07-29T22:02:50.398Z,21.84
2022-07-29T22:07:55.490Z,21.80
2022-07-29T22:12:52.708Z,21.75
2022-07-29T22:17:59.521Z,21.67
2022-07-29T22:22:53.272Z,21.61
2022-07-29T22:27:53.978Z,21.53
2022-07-29T22:32:54.679Z,21.50
2022-07-29T22:37:55.412Z,21.46
2022-07-29T22:42:56.134Z,21.44
2022-07-29T22:47:59.150Z,21.44
2022-07-29T22:52:57.738Z,21.42
2022-07-29T22:57:58.416Z,21.35
2022-07-29T23:02:59.243Z,21.35
2022-07-29T23:08:00.448Z,21.29
2022-07-29T23:13:00.808Z,21.24
2022-07-29T23:18:01.541Z,21.17
2022-07-29T23:23:02.285Z,21.09
2022-07-29T23:28:02.984Z,21.01
2022-07-29T23:33:03.698Z,20.92
2022-07-29T23:38:04.406Z,20.87
2022-07-29T23:43:06.031Z,20.79
2022-07-29T23:48:06.094Z,20.72
2022-07-29T23:53:06.834Z,20.66
2022-07-29T23:58:07.564Z,20.59
